Time;durP1;ratioP1;P1;durP2;ratioP2;P2;SDS_P1;SDS_P2;PMS_P1;PMS_P2;Temp;Humidity;BMP_temperature;BMP_pressure;BME280_temperature;BME280_humidity;BME280_pressure;Samples;Min_cycle;Max_cycle;Signal;HPM_P1;HPM_P2
2022/05/14 00:01:32;;;;;;;;;;;;;;;;;;6009750;23;19917;-69
2022/05/14 00:09:29;;;;;;;;;;;;;;;;;;6036781;23;19960;-68
2022/05/14 00:26:01;;;;;;;;;;;;;;;;;;6209226;22;19909;-68
2022/05/14 00:28:27;;;;;;;;;;;;;;;;;;6243807;23;19954;-68
2022/05/14 00:30:53;;;;;;;;;;;;;;;;;;6216329;23;19904;-68
2022/05/14 00:36:25;;;;;;;;;;;;;;;;;;6181689;23;20441;-68
2022/05/14 00:47:27;;;;;;;;;;;;;;;;;;6183894;23;19907;-69
2022/05/14 00:58:08;;;;;;;;;;;;;;;;;;6180716;23;20337;-68
2022/05/14 01:00:43;;;;;;;;;;;;;;;;;;6105291;23;19901;-68
2022/05/14 01:05:59;;;;;;;;;;;;;;;;;;6181791;23;19915;-68
2022/05/14 01:14:23;;;;;;;;;;;;;;;;;;6121092;23;19912;-68
2022/05/14 01:16:51;;;;;;;;;;;;;;;;;;6119256;23;19920;-69
2022/05/14 01:19:23;;;;;;;;;;;;;;;;;;6119989;23;19901;-68
2022/05/14 01:21:49;;;;;;;;;;;;;;;;;;6120311;23;19904;-68
2022/05/14 01:27:04;;;;;;;;;;;;;;;;;;6121733;23;20008;-70
2022/05/14 01:29:38;;;;;;;;;;;;;;;;;;6119789;23;19901;-68
2022/05/14 01:32:16;;;;;;;;;;;;;;;;;;6117456;23;19969;-68
2022/05/14 01:34:45;;;;;;;;;;;;;;;;;;6116021;23;20308;-67
2022/05/14 01:37:31;;;;;;;;;;;;;;;;;;6124137;23;19908;-68
2022/05/14 01:40:02;;;;;;;;;;;;;;;;;;6119945;23;20230;-68
2022/05/14 01:42:50;;;;;;;;;;;;;;;;;;6149159;23;19923;-68
2022/05/14 01:45:19;;;;;;;;;;;;;;;;;;6177316;23;20318;-68
2022/05/14 01:48:02;;;;;;;;;;;;;;;;;;6239975;23;19910;-68
2022/05/14 01:50:28;;;;;;;;;;;;;;;;;;6214421;23;19979;-68
2022/05/14 01:53:02;;;;;;;;;;;;;;;;;;6243927;23;20314;-68
2022/05/14 02:01:18;;;;;;;;;;;;;;;;;;6122789;23;19901;-68
2022/05/14 02:03:46;;;;;;;;;;;;;;;;;;6094457;23;19932;-68
2022/05/14 02:06:12;;;;;;;;;;;;;;;;;;6119764;23;19949;-68
2022/05/14 02:08:41;;;;;;;;;;;;;;;;;;6095413;23;19908;-68
2022/05/14 02:11:08;;;;;;;;;;;;;;;;;;6119996;23;19979;-68
2022/05/14 02:16:21;;;;;;;;;;;;;;;;;;6121029;23;19908;-68
2022/05/14 02:29:51;;;;;;;;;;;;;;;;;;6062061;23;19913;-68
2022/05/14 02:46:29;;;;;;;;;;;;;;;;;;6121884;23;19904;-68
2022/05/14 02:51:44;;;;;;;;;;;;;;;;;;6123382;23;20283;-68
2022/05/14 02:54:20;;;;;;;;;;;;;;;;;;6122391;23;20375;-68
2022/05/14 02:56:46;;;;;;;;;;;;;;;;;;6119194;23;19905;-68
2022/05/14 02:59:21;;;;;;;;;;;;;;;;;;6119492;23;19905;-68
2022/05/14 03:07:39;;;;;;;;;;;;;;;;;;6093677;23;19939;-68
2022/05/14 03:13:13;;;;;;;;;;;;;;;;;;6035826;23;19962;-69
2022/05/14 03:15:39;;;;;;;;;;;;;;;;;;6035718;23;20371;-68
2022/05/14 03:20:49;;;;;;;;;;;;;;;;;;6072597;23;19970;-63
2022/05/14 03:23:15;;;;;;;;;;;;;;;;;;6154818;23;19928;-63
2022/05/14 03:25:41;;;;;;;;;;;;;;;;;;6154430;23;19916;-63
2022/05/14 03:28:07;;;;;;;;;;;;;;;;;;6153179;23;19900;-63
2022/05/14 03:30:33;;;;;;;;;;;;;;;;;;6153374;23;19901;-63
2022/05/14 03:32:59;;;;;;;;;;;;;;;;;;6154115;23;19907;-63
2022/05/14 03:35:25;;;;;;;;;;;;;;;;;;6151767;23;19936;-65
2022/05/14 03:37:51;;;;;;;;;;;;;;;;;;6153910;23;19914;-65
2022/05/14 03:40:17;;;;;;;;;;;;;;;;;;6152385;23;19901;-65
2022/05/14 03:42:45;;;;;;;;;;;;;;;;;;6154115;23;19904;-65
2022/05/14 03:45:11;;;;;;;;;;;;;;;;;;6153824;23;20262;-65
2022/05/14 03:47:37;;;;;;;;;;;;;;;;;;6153918;23;20314;-64
2022/05/14 03:50:04;;;;;;;;;;;;;;;;;;6153030;23;19971;-65
2022/05/14 03:52:30;;;;;;;;;;;;;;;;;;6152678;23;19905;-64
2022/05/14 03:54:56;;;;;;;;;;;;;;;;;;6152168;23;19971;-65
2022/05/14 03:57:22;;;;;;;;;;;;;;;;;;6153393;23;19930;-65
2022/05/14 03:59:48;;;;;;;;;;;;;;;;;;6153278;23;20306;-65
2022/05/14 04:02:13;;;;;;;;;;;;;;;;;;6154269;23;19924;-65
2022/05/14 04:04:43;;;;;;;;;;;;;;;;;;6151254;23;20319;-65
2022/05/14 04:07:12;;;;;;;;;;;;;;;;;;6152343;23;19922;-65
2022/05/14 04:09:38;;;;;;;;;;;;;;;;;;6153674;23;19900;-65
2022/05/14 04:12:10;;;;;;;;;;;;;;;;;;6152346;23;19907;-65
2022/05/14 04:14:36;;;;;;;;;;;;;;;;;;6152642;23;19932;-65
2022/05/14 04:17:02;;;;;;;;;;;;;;;;;;6153635;23;19905;-65
2022/05/14 04:19:28;;;;;;;;;;;;;;;;;;6151827;23;20056;-65
2022/05/14 04:21:53;;;;;;;;;;;;;;;;;;6157021;23;19908;-65
2022/05/14 04:24:19;;;;;;;;;;;;;;;;;;6182853;23;20435;-65
2022/05/14 04:26:45;;;;;;;;;;;;;;;;;;6183295;23;19904;-65
2022/05/14 04:29:11;;;;;;;;;;;;;;;;;;6155877;23;19907;-65
2022/05/14 04:31:39;;;;;;;;;;;;;;;;;;6181787;23;20314;-65
2022/05/14 04:34:05;;;;;;;;;;;;;;;;;;6183306;23;19900;-65
2022/05/14 04:36:31;;;;;;;;;;;;;;;;;;6155619;23;20009;-65
2022/05/14 04:38:57;;;;;;;;;;;;;;;;;;6181931;23;19900;-64
2022/05/14 04:41:25;;;;;;;;;;;;;;;;;;6182313;23;19966;-65
2022/05/14 04:43:51;;;;;;;;;;;;;;;;;;6156832;23;19940;-64
2022/05/14 04:46:17;;;;;;;;;;;;;;;;;;6182803;23;19907;-65
2022/05/14 04:48:43;;;;;;;;;;;;;;;;;;6182254;23;20322;-65
2022/05/14 04:51:09;;;;;;;;;;;;;;;;;;6155850;23;19960;-64
2022/05/14 04:53:35;;;;;;;;;;;;;;;;;;6182673;23;19900;-65
2022/05/14 04:56:01;;;;;;;;;;;;;;;;;;6182968;23;19911;-64
2022/05/14 04:58:27;;;;;;;;;;;;;;;;;;6180706;23;19901;-64
2022/05/14 05:00:53;;;;;;;;;;;;;;;;;;6182712;23;19900;-64
2022/05/14 05:03:21;;;;;;;;;;;;;;;;;;6156000;23;19903;-64
2022/05/14 05:05:48;;;;;;;;;;;;;;;;;;6182159;23;20006;-64
2022/05/14 05:08:13;;;;;;;;;;;;;;;;;;6181258;23;19906;-64
2022/05/14 05:10:39;;;;;;;;;;;;;;;;;;6183528;23;19924;-64
2022/05/14 05:13:05;;;;;;;;;;;;;;;;;;6182651;23;19907;-64
2022/05/14 05:15:31;;;;;;;;;;;;;;;;;;6182279;23;19907;-65
2022/05/14 05:17:57;;;;;;;;;;;;;;;;;;6182470;23;20220;-64
2022/05/14 05:20:23;;;;;;;;;;;;;;;;;;6181863;23;19912;-64
2022/05/14 05:22:49;;;;;;;;;;;;;;;;;;6182144;23;20306;-65
2022/05/14 05:25:15;;;;;;;;;;;;;;;;;;6182386;23;19912;-64
2022/05/14 05:27:41;;;;;;;;;;;;;;;;;;6182313;23;20327;-64
2022/05/14 05:30:07;;;;;;;;;;;;;;;;;;6181977;23;19900;-65
2022/05/14 05:32:33;;;;;;;;;;;;;;;;;;6182150;23;19934;-65
2022/05/14 05:34:58;;;;;;;;;;;;;;;;;;6181627;23;19986;-65
2022/05/14 05:37:24;;;;;;;;;;;;;;;;;;6155305;23;20315;-65
2022/05/14 05:39:50;;;;;;;;;;;;;;;;;;6154878;23;19900;-65
2022/05/14 05:42:16;;;;;;;;;;;;;;;;;;6181848;23;19900;-65
2022/05/14 05:44:42;;;;;;;;;;;;;;;;;;6182108;23;19912;-64
2022/05/14 05:47:08;;;;;;;;;;;;;;;;;;6182065;23;19979;-65
2022/05/14 05:49:34;;;;;;;;;;;;;;;;;;6181176;23;19904;-65
2022/05/14 05:52:00;;;;;;;;;;;;;;;;;;6181290;23;19904;-65
2022/05/14 05:57:10;;;;;;;;;;;;;;;;;;6181777;23;20058;-65
2022/05/14 05:59:36;;;;;;;;;;;;;;;;;;6181276;23;19935;-65
2022/05/14 06:02:02;;;;;;;;;;;;;;;;;;6182226;23;19904;-64
2022/05/14 06:04:28;;;;;;;;;;;;;;;;;;6181635;23;19908;-65
2022/05/14 06:06:54;;;;;;;;;;;;;;;;;;6181755;23;19967;-64
2022/05/14 06:09:20;;;;;;;;;;;;;;;;;;6181298;23;19932;-65
2022/05/14 06:11:46;;;;;;;;;;;;;;;;;;6182203;23;19901;-65
2022/05/14 06:14:12;;;;;;;;;;;;;;;;;;6155587;23;20409;-65
2022/05/14 06:16:38;;;;;;;;;;;;;;;;;;6182455;23;20308;-65
2022/05/14 06:19:03;;;;;;;;;;;;;;;;;;6180825;23;20003;-64
2022/05/14 06:21:29;;;;;;;;;;;;;;;;;;6181351;23;19915;-64
2022/05/14 06:23:55;;;;;;;;;;;;;;;;;;6182093;23;19909;-64
2022/05/14 06:26:22;;;;;;;;;;;;;;;;;;6182395;23;19908;-64
2022/05/14 06:28:47;;;;;;;;;;;;;;;;;;6181631;23;19900;-63
2022/05/14 06:31:16;;;;;;;;;;;;;;;;;;6182277;23;19900;-63
2022/05/14 06:33:43;;;;;;;;;;;;;;;;;;6181874;23;19962;-64
2022/05/14 06:36:09;;;;;;;;;;;;;;;;;;6181468;23;19900;-64
2022/05/14 06:38:35;;;;;;;;;;;;;;;;;;6180754;23;19900;-63
2022/05/14 06:41:02;;;;;;;;;;;;;;;;;;6182266;23;19947;-64
2022/05/14 06:43:28;;;;;;;;;;;;;;;;;;6181367;23;19900;-64
2022/05/14 06:45:54;;;;;;;;;;;;;;;;;;6182155;23;19908;-64
2022/05/14 06:48:21;;;;;;;;;;;;;;;;;;6181078;23;19904;-63
2022/05/14 06:50:47;;;;;;;;;;;;;;;;;;6181127;23;19911;-64
2022/05/14 06:53:13;;;;;;;;;;;;;;;;;;6181766;23;19901;-63
2022/05/14 06:55:39;;;;;;;;;;;;;;;;;;6182166;23;20322;-63
2022/05/14 06:58:05;;;;;;;;;;;;;;;;;;6181364;23;19922;-63
2022/05/14 07:00:31;;;;;;;;;;;;;;;;;;6181638;23;20382;-64
2022/05/14 07:06:37;;;;;;;;;;;;;;;;;;6181730;23;20274;-64
2022/05/14 07:08:28;;;;;;;;;;;;;;;;;;6180187;23;20333;-62
2022/05/14 07:10:54;;;;;;;;;;;;;;;;;;6155475;23;19900;-64
2022/05/14 07:13:19;;;;;;;;;;;;;;;;;;6181127;23;19904;-64
2022/05/14 07:15:45;;;;;;;;;;;;;;;;;;6182277;23;19983;-64
2022/05/14 07:18:11;;;;;;;;;;;;;;;;;;6180356;23;19911;-64
2022/05/14 07:20:37;;;;;;;;;;;;;;;;;;6182489;23;19908;-64
2022/05/14 07:23:03;;;;;;;;;;;;;;;;;;6181192;23;19954;-64
2022/05/14 07:25:29;;;;;;;;;;;;;;;;;;6181779;23;19909;-65
2022/05/14 07:27:55;;;;;;;;;;;;;;;;;;6181679;23;20204;-64
2022/05/14 07:30:21;;;;;;;;;;;;;;;;;;6182247;23;19900;-64
2022/05/14 07:32:47;;;;;;;;;;;;;;;;;;6181937;23;19900;-64
2022/05/14 07:35:12;;;;;;;;;;;;;;;;;;6181974;23;19904;-64
2022/05/14 07:37:38;;;;;;;;;;;;;;;;;;6181308;23;20246;-64
2022/05/14 07:40:04;;;;;;;;;;;;;;;;;;6181299;23;19900;-64
2022/05/14 07:42:30;;;;;;;;;;;;;;;;;;6182169;23;20226;-64
2022/05/14 07:44:56;;;;;;;;;;;;;;;;;;6182034;23;19912;-64
2022/05/14 07:47:22;;;;;;;;;;;;;;;;;;6182515;23;20289;-64
2022/05/14 07:49:48;;;;;;;;;;;;;;;;;;6181896;23;19907;-64
2022/05/14 07:52:14;;;;;;;;;;;;;;;;;;6181997;23;20310;-64
2022/05/14 07:54:40;;;;;;;;;;;;;;;;;;6185911;23;19908;-64
2022/05/14 07:57:06;;;;;;;;;;;;;;;;;;6184294;23;19908;-64
2022/05/14 07:59:32;;;;;;;;;;;;;;;;;;6182921;23;19910;-64
2022/05/14 08:01:58;;;;;;;;;;;;;;;;;;6183331;23;19986;-64
2022/05/14 08:04:24;;;;;;;;;;;;;;;;;;6183052;23;20353;-64
2022/05/14 08:06:49;;;;;;;;;;;;;;;;;;6182983;23;19907;-64
2022/05/14 08:09:15;;;;;;;;;;;;;;;;;;6182485;23;20322;-65
2022/05/14 08:11:41;;;;;;;;;;;;;;;;;;6183392;23;19904;-64
2022/05/14 08:14:07;;;;;;;;;;;;;;;;;;6183033;23;19904;-64
2022/05/14 08:16:33;;;;;;;;;;;;;;;;;;6183439;23;20298;-64
2022/05/14 08:19:00;;;;;;;;;;;;;;;;;;6183257;23;19900;-64
2022/05/14 08:26:59;;;;;;;;;;;;;;;;;;6182977;23;19994;-64
2022/05/14 08:29:25;;;;;;;;;;;;;;;;;;6157006;23;19935;-64
2022/05/14 08:31:54;;;;;;;;;;;;;;;;;;6157515;23;19901;-64
2022/05/14 08:34:20;;;;;;;;;;;;;;;;;;6180664;23;19927;-63
2022/05/14 08:36:46;;;;;;;;;;;;;;;;;;6182894;23;19904;-63
2022/05/14 08:39:12;;;;;;;;;;;;;;;;;;6182808;23;20258;-62
2022/05/14 08:41:38;;;;;;;;;;;;;;;;;;6156257;23;20238;-63
2022/05/14 08:44:04;;;;;;;;;;;;;;;;;;6182722;23;20341;-63
2022/05/14 08:46:30;;;;;;;;;;;;;;;;;;6183453;23;19932;-63
2022/05/14 08:48:56;;;;;;;;;;;;;;;;;;6181650;23;19900;-63
2022/05/14 08:51:22;;;;;;;;;;;;;;;;;;6183343;23;19935;-63
2022/05/14 08:53:48;;;;;;;;;;;;;;;;;;6181960;23;19904;-63
2022/05/14 08:56:14;;;;;;;;;;;;;;;;;;6182955;23;19900;-63
2022/05/14 08:58:40;;;;;;;;;;;;;;;;;;6182819;23;19901;-63
2022/05/14 09:01:06;;;;;;;;;;;;;;;;;;6183004;23;20422;-63
2022/05/14 09:03:32;;;;;;;;;;;;;;;;;;6181643;23;20339;-63
2022/05/14 09:05:58;;;;;;;;;;;;;;;;;;6182384;23;19915;-63
2022/05/14 09:08:24;;;;;;;;;;;;;;;;;;6181403;23;19900;-63
2022/05/14 09:10:52;;;;;;;;;;;;;;;;;;6182306;23;19904;-62
2022/05/14 09:13:18;;;;;;;;;;;;;;;;;;6183376;23;19923;-63
2022/05/14 09:15:44;;;;;;;;;;;;;;;;;;6182381;23;20250;-62
2022/05/14 09:18:10;;;;;;;;;;;;;;;;;;6181692;23;19974;-64
2022/05/14 09:20:36;;;;;;;;;;;;;;;;;;6156022;23;20283;-63
2022/05/14 09:23:02;;;;;;;;;;;;;;;;;;6182156;23;20210;-63
2022/05/14 09:25:28;;;;;;;;;;;;;;;;;;6182614;23;19970;-63
2022/05/14 09:27:54;;;;;;;;;;;;;;;;;;6182594;23;19979;-63
2022/05/14 09:30:20;;;;;;;;;;;;;;;;;;6155584;23;19900;-63
2022/05/14 09:32:46;;;;;;;;;;;;;;;;;;6182029;23;19944;-63
2022/05/14 09:35:11;;;;;;;;;;;;;;;;;;6181315;23;19954;-63
2022/05/14 09:37:38;;;;;;;;;;;;;;;;;;6180932;23;20067;-63
2022/05/14 09:40:05;;;;;;;;;;;;;;;;;;6181856;23;19904;-64
2022/05/14 09:42:31;;;;;;;;;;;;;;;;;;6182640;23;19904;-64
2022/05/14 09:44:57;;;;;;;;;;;;;;;;;;6182696;23;20208;-64
2022/05/14 09:47:23;;;;;;;;;;;;;;;;;;6182009;23;19900;-64
2022/05/14 09:49:49;;;;;;;;;;;;;;;;;;6181848;23;20212;-63
2022/05/14 09:55:01;;;;;;;;;;;;;;;;;;6184220;23;19923;-69
2022/05/14 09:57:27;;;;;;;;;;;;;;;;;;6182738;23;19900;-69
2022/05/14 09:59:53;;;;;;;;;;;;;;;;;;6181723;23;19907;-69
2022/05/14 10:02:19;;;;;;;;;;;;;;;;;;6156997;23;19908;-69
2022/05/14 10:04:45;;;;;;;;;;;;;;;;;;6183428;23;19908;-69
2022/05/14 10:07:11;;;;;;;;;;;;;;;;;;6184064;23;19907;-69
2022/05/14 10:09:37;;;;;;;;;;;;;;;;;;6183758;23;19904;-69
2022/05/14 10:12:02;;;;;;;;;;;;;;;;;;6184515;23;19907;-69
2022/05/14 10:14:28;;;;;;;;;;;;;;;;;;6183843;23;20262;-67
2022/05/14 10:16:54;;;;;;;;;;;;;;;;;;6181707;23;19931;-68
2022/05/14 10:19:20;;;;;;;;;;;;;;;;;;6181401;23;19946;-68
2022/05/14 10:21:46;;;;;;;;;;;;;;;;;;6182290;23;20350;-68
2022/05/14 10:26:57;;;;;;;;;;;;;;;;;;6182538;23;19923;-68
2022/05/14 10:29:24;;;;;;;;;;;;;;;;;;6181724;23;19904;-68
2022/05/14 10:31:50;;;;;;;;;;;;;;;;;;6181882;23;19940;-68
2022/05/14 10:34:16;;;;;;;;;;;;;;;;;;6181793;23;19904;-68
2022/05/14 10:36:42;;;;;;;;;;;;;;;;;;6182109;23;20337;-69
2022/05/14 10:39:09;;;;;;;;;;;;;;;;;;6180836;23;19908;-69
2022/05/14 10:41:35;;;;;;;;;;;;;;;;;;6182779;23;19975;-69
2022/05/14 10:44:00;;;;;;;;;;;;;;;;;;6183223;23;19931;-68
2022/05/14 10:46:26;;;;;;;;;;;;;;;;;;6181301;23;19904;-68
2022/05/14 10:48:52;;;;;;;;;;;;;;;;;;6181882;23;19901;-68
2022/05/14 10:51:18;;;;;;;;;;;;;;;;;;6182150;23;19900;-69
2022/05/14 10:53:44;;;;;;;;;;;;;;;;;;6182425;23;20322;-70
2022/05/14 10:56:10;;;;;;;;;;;;;;;;;;6181770;23;19915;-69
2022/05/14 10:58:39;;;;;;;;;;;;;;;;;;6180986;23;20342;-68
2022/05/14 11:01:05;;;;;;;;;;;;;;;;;;6181773;23;19904;-69
2022/05/14 11:03:32;;;;;;;;;;;;;;;;;;6183136;23;20311;-69
2022/05/14 11:05:58;;;;;;;;;;;;;;;;;;6181584;23;19914;-68
2022/05/14 11:08:24;;;;;;;;;;;;;;;;;;6181961;23;19975;-69
2022/05/14 11:10:49;;;;;;;;;;;;;;;;;;6180675;23;20415;-69
2022/05/14 11:13:15;;;;;;;;;;;;;;;;;;6182034;23;19928;-69
2022/05/14 11:15:41;;;;;;;;;;;;;;;;;;6181890;23;19900;-68
2022/05/14 11:18:07;;;;;;;;;;;;;;;;;;6181141;23;20299;-69
2022/05/14 11:20:33;;;;;;;;;;;;;;;;;;6181700;23;19980;-68
2022/05/14 11:22:59;;;;;;;;;;;;;;;;;;6181564;23;19932;-68
2022/05/14 11:25:25;;;;;;;;;;;;;;;;;;6181418;23;19912;-70
2022/05/14 11:27:51;;;;;;;;;;;;;;;;;;6183557;23;19935;-70
2022/05/14 11:30:17;;;;;;;;;;;;;;;;;;6183326;23;19992;-68
2022/05/14 11:32:43;;;;;;;;;;;;;;;;;;6183815;23;19954;-68
2022/05/14 11:35:08;;;;;;;;;;;;;;;;;;6183970;23;19901;-69
2022/05/14 11:37:34;;;;;;;;;;;;;;;;;;6184082;23;20321;-69
2022/05/14 11:40:00;;;;;;;;;;;;;;;;;;6182062;23;19908;-69
2022/05/14 11:42:26;;;;;;;;;;;;;;;;;;6183645;23;20369;-69
2022/05/14 11:44:52;;;;;;;;;;;;;;;;;;6183766;23;19930;-69
2022/05/14 11:47:18;;;;;;;;;;;;;;;;;;6183508;23;20329;-69
2022/05/14 11:49:44;;;;;;;;;;;;;;;;;;6183105;23;19900;-69
2022/05/14 11:52:10;;;;;;;;;;;;;;;;;;6183680;23;20303;-69
2022/05/14 11:54:36;;;;;;;;;;;;;;;;;;6184383;23;20285;-69
2022/05/14 11:57:02;;;;;;;;;;;;;;;;;;6185638;23;19996;-69
2022/05/14 11:59:28;;;;;;;;;;;;;;;;;;6183867;23;19924;-69
2022/05/14 12:01:54;;;;;;;;;;;;;;;;;;6184468;23;19904;-69
2022/05/14 12:04:23;;;;;;;;;;;;;;;;;;6187450;23;19904;-69
2022/05/14 12:06:49;;;;;;;;;;;;;;;;;;6186224;23;20294;-69
2022/05/14 12:09:15;;;;;;;;;;;;;;;;;;6185553;23;19979;-68
2022/05/14 12:11:41;;;;;;;;;;;;;;;;;;6183946;23;19927;-70
2022/05/14 12:14:06;;;;;;;;;;;;;;;;;;6183468;23;19900;-70
2022/05/14 12:16:32;;;;;;;;;;;;;;;;;;6183862;23;20472;-68
2022/05/14 12:18:58;;;;;;;;;;;;;;;;;;6183190;23;19946;-69
2022/05/14 12:21:24;;;;;;;;;;;;;;;;;;6183344;23;19955;-69
2022/05/14 12:23:50;;;;;;;;;;;;;;;;;;6181855;23;19904;-69
2022/05/14 12:26:16;;;;;;;;;;;;;;;;;;6156714;23;19911;-69
2022/05/14 12:28:42;;;;;;;;;;;;;;;;;;6182382;23;19998;-68
2022/05/14 12:33:52;;;;;;;;;;;;;;;;;;6183529;23;19907;-69
2022/05/14 12:36:18;;;;;;;;;;;;;;;;;;6181497;23;19900;-69
2022/05/14 12:38:44;;;;;;;;;;;;;;;;;;6182579;23;19900;-69
2022/05/14 12:41:10;;;;;;;;;;;;;;;;;;6182786;23;19927;-69
2022/05/14 12:43:36;;;;;;;;;;;;;;;;;;6183219;23;20289;-68
2022/05/14 12:46:02;;;;;;;;;;;;;;;;;;6182930;23;19911;-68
2022/05/14 12:48:28;;;;;;;;;;;;;;;;;;6182635;23;20234;-68
2022/05/14 12:50:54;;;;;;;;;;;;;;;;;;6182738;23;20277;-69
2022/05/14 12:53:19;;;;;;;;;;;;;;;;;;6183199;23;19908;-69
2022/05/14 12:55:46;;;;;;;;;;;;;;;;;;6182443;23;20262;-69
2022/05/14 12:58:12;;;;;;;;;;;;;;;;;;6183104;23;19900;-69
2022/05/14 13:00:38;;;;;;;;;;;;;;;;;;6183116;23;20283;-69
2022/05/14 13:03:06;;;;;;;;;;;;;;;;;;6183322;23;19900;-69
2022/05/14 13:05:32;;;;;;;;;;;;;;;;;;6182651;23;19912;-69
2022/05/14 13:07:58;;;;;;;;;;;;;;;;;;6182587;23;19900;-70
2022/05/14 13:10:23;;;;;;;;;;;;;;;;;;6155831;23;20420;-69
2022/05/14 13:12:49;;;;;;;;;;;;;;;;;;6183150;23;19908;-69
2022/05/14 13:15:15;;;;;;;;;;;;;;;;;;6182879;23;20352;-69
2022/05/14 13:17:41;;;;;;;;;;;;;;;;;;6182352;23;20048;-68
2022/05/14 13:20:07;;;;;;;;;;;;;;;;;;6182348;23;20336;-70
2022/05/14 13:22:33;;;;;;;;;;;;;;;;;;6182846;23;19971;-69
2022/05/14 13:24:59;;;;;;;;;;;;;;;;;;6183266;23;20238;-69
2022/05/14 13:27:25;;;;;;;;;;;;;;;;;;6181933;23;19954;-69
2022/05/14 13:29:51;;;;;;;;;;;;;;;;;;6182461;23;19958;-69
2022/05/14 13:32:17;;;;;;;;;;;;;;;;;;6182518;23;19900;-69
2022/05/14 13:37:28;;;;;;;;;;;;;;;;;;6181783;23;19907;-69
2022/05/14 13:39:53;;;;;;;;;;;;;;;;;;6182535;23;19900;-69
2022/05/14 13:42:19;;;;;;;;;;;;;;;;;;6182209;23;19982;-69
2022/05/14 13:44:45;;;;;;;;;;;;;;;;;;6156070;23;19908;-69
2022/05/14 13:47:11;;;;;;;;;;;;;;;;;;6181646;23;19900;-69
2022/05/14 13:49:37;;;;;;;;;;;;;;;;;;6182160;23;19927;-70
2022/05/14 13:52:03;;;;;;;;;;;;;;;;;;6182220;23;19900;-69
2022/05/14 13:54:29;;;;;;;;;;;;;;;;;;6181139;23;20215;-69
2022/05/14 13:56:55;;;;;;;;;;;;;;;;;;6182288;23;20234;-69
2022/05/14 13:59:21;;;;;;;;;;;;;;;;;;6182313;23;19900;-69
2022/05/14 14:01:46;;;;;;;;;;;;;;;;;;6182154;23;19906;-69
2022/05/14 14:04:13;;;;;;;;;;;;;;;;;;6182684;23;20362;-69
2022/05/14 14:06:39;;;;;;;;;;;;;;;;;;6182753;23;19900;-69
2022/05/14 14:09:07;;;;;;;;;;;;;;;;;;6182684;23;20211;-69
2022/05/14 14:11:33;;;;;;;;;;;;;;;;;;6181880;23;20319;-69
2022/05/14 14:13:59;;;;;;;;;;;;;;;;;;6183378;23;19900;-69
2022/05/14 14:16:27;;;;;;;;;;;;;;;;;;6182424;23;19958;-69
2022/05/14 14:18:53;;;;;;;;;;;;;;;;;;6181970;23;19920;-69
2022/05/14 14:21:19;;;;;;;;;;;;;;;;;;6182199;23;19900;-69
2022/05/14 14:23:45;;;;;;;;;;;;;;;;;;6183228;23;19927;-69
2022/05/14 14:26:11;;;;;;;;;;;;;;;;;;6181816;23;19908;-69
2022/05/14 14:28:37;;;;;;;;;;;;;;;;;;6181605;23;20512;-69
2022/05/14 14:31:03;;;;;;;;;;;;;;;;;;6182130;23;19904;-69
2022/05/14 14:33:29;;;;;;;;;;;;;;;;;;6181973;23;19939;-69
2022/05/14 14:35:55;;;;;;;;;;;;;;;;;;6182387;23;19904;-69
2022/05/14 14:38:21;;;;;;;;;;;;;;;;;;6181173;23;19900;-69
2022/05/14 14:40:46;;;;;;;;;;;;;;;;;;6182513;23;19931;-70
2022/05/14 14:43:13;;;;;;;;;;;;;;;;;;6181666;23;19995;-70
2022/05/14 14:45:38;;;;;;;;;;;;;;;;;;6181314;23;19915;-70
2022/05/14 14:48:04;;;;;;;;;;;;;;;;;;6182058;23;20396;-69
2022/05/14 14:50:30;;;;;;;;;;;;;;;;;;6182393;23;20329;-70
2022/05/14 14:52:56;;;;;;;;;;;;;;;;;;6182273;23;20358;-70
2022/05/14 14:55:22;;;;;;;;;;;;;;;;;;6182222;23;20319;-70
2022/05/14 14:57:48;;;;;;;;;;;;;;;;;;6180515;23;19900;-70
2022/05/14 15:00:14;;;;;;;;;;;;;;;;;;6181472;23;19904;-69
2022/05/14 15:02:40;;;;;;;;;;;;;;;;;;6181378;23;19900;-68
2022/05/14 15:05:06;;;;;;;;;;;;;;;;;;6182576;23;19919;-72
2022/05/14 15:07:32;;;;;;;;;;;;;;;;;;6155969;23;19950;-70
2022/05/14 15:09:59;;;;;;;;;;;;;;;;;;6181376;23;20322;-70
2022/05/14 15:12:25;;;;;;;;;;;;;;;;;;6181568;23;19900;-70
2022/05/14 15:14:51;;;;;;;;;;;;;;;;;;6155489;23;20082;-70
2022/05/14 15:17:17;;;;;;;;;;;;;;;;;;6181879;23;19900;-70
2022/05/14 15:19:43;;;;;;;;;;;;;;;;;;6180992;23;19900;-70
2022/05/14 15:22:08;;;;;;;;;;;;;;;;;;6182163;23;19900;-71
2022/05/14 15:24:34;;;;;;;;;;;;;;;;;;6182201;23;19915;-70
2022/05/14 15:27:01;;;;;;;;;;;;;;;;;;6181275;23;20322;-70
2022/05/14 15:29:27;;;;;;;;;;;;;;;;;;6181378;23;19904;-70
2022/05/14 15:31:52;;;;;;;;;;;;;;;;;;6182073;23;19906;-70
2022/05/14 15:34:18;;;;;;;;;;;;;;;;;;6182029;23;19900;-70
2022/05/14 15:36:44;;;;;;;;;;;;;;;;;;6181926;23;19972;-70
2022/05/14 15:39:11;;;;;;;;;;;;;;;;;;6181786;23;19916;-70
2022/05/14 15:41:37;;;;;;;;;;;;;;;;;;6180617;23;20358;-71
2022/05/14 15:44:03;;;;;;;;;;;;;;;;;;6182601;23;19924;-70
2022/05/14 15:46:29;;;;;;;;;;;;;;;;;;6181591;23;20314;-69
2022/05/14 15:48:55;;;;;;;;;;;;;;;;;;6179386;23;19907;-70
2022/05/14 15:51:21;;;;;;;;;;;;;;;;;;6179835;23;20239;-69
2022/05/14 15:53:47;;;;;;;;;;;;;;;;;;6180714;23;20014;-70
2022/05/14 15:56:13;;;;;;;;;;;;;;;;;;6183769;23;19912;-70
2022/05/14 15:58:38;;;;;;;;;;;;;;;;;;6156860;23;19923;-71
2022/05/14 16:01:04;;;;;;;;;;;;;;;;;;6157294;23;19900;-71
2022/05/14 16:06:21;;;;;;;;;;;;;;;;;;6184287;23;20377;-71
2022/05/14 16:08:47;;;;;;;;;;;;;;;;;;6182772;23;19943;-71
2022/05/14 16:16:42;;;;;;;;;;;;;;;;;;6184290;23;19908;-71
2022/05/14 16:19:08;;;;;;;;;;;;;;;;;;6181852;23;19900;-72
2022/05/14 16:21:34;;;;;;;;;;;;;;;;;;6156351;23;20319;-71
2022/05/14 16:24:00;;;;;;;;;;;;;;;;;;6156629;23;20322;-72
2022/05/14 16:26:26;;;;;;;;;;;;;;;;;;6183143;23;19908;-73
2022/05/14 16:28:52;;;;;;;;;;;;;;;;;;6182555;23;19983;-71
2022/05/14 16:31:19;;;;;;;;;;;;;;;;;;6182638;23;19907;-71
2022/05/14 16:33:45;;;;;;;;;;;;;;;;;;6182934;23;20035;-72
2022/05/14 16:36:12;;;;;;;;;;;;;;;;;;6182961;23;19936;-71
2022/05/14 16:38:38;;;;;;;;;;;;;;;;;;6182641;23;19900;-71
2022/05/14 16:41:04;;;;;;;;;;;;;;;;;;6183884;23;19955;-71
2022/05/14 16:46:14;;;;;;;;;;;;;;;;;;6185260;23;19947;-62
2022/05/14 16:48:40;;;;;;;;;;;;;;;;;;6157208;23;20274;-62
2022/05/14 16:51:07;;;;;;;;;;;;;;;;;;6158851;23;19962;-62
2022/05/14 16:53:38;;;;;;;;;;;;;;;;;;6186719;23;19900;-62
2022/05/14 17:23:47;;;;;;;;;;;;;;;;;;6186004;23;19900;-62
2022/05/14 17:26:13;;;;;;;;;;;;;;;;;;6183450;23;20322;-62
2022/05/14 17:28:39;;;;;;;;;;;;;;;;;;6155850;23;19911;-63
2022/05/14 17:31:05;;;;;;;;;;;;;;;;;;6182745;23;19908;-63
2022/05/14 17:33:31;;;;;;;;;;;;;;;;;;6156423;23;19904;-62
2022/05/14 17:35:57;;;;;;;;;;;;;;;;;;6156526;23;19901;-62
2022/05/14 17:41:08;;;;;;;;;;;;;;;;;;6182982;23;19966;-62
2022/05/14 17:43:34;;;;;;;;;;;;;;;;;;6182608;23;19908;-62
2022/05/14 17:46:00;;;;;;;;;;;;;;;;;;6181809;23;19912;-62
2022/05/14 17:48:26;;;;;;;;;;;;;;;;;;6155801;23;19907;-62
2022/05/14 17:50:52;;;;;;;;;;;;;;;;;;6156146;23;19900;-62
2022/05/14 17:53:18;;;;;;;;;;;;;;;;;;6155954;23;19900;-62
2022/05/14 17:58:57;;;;;;;;;;;;;;;;;;6180793;23;20322;-63
2022/05/14 18:12:48;;;;;;;;;;;;;;;;;;6090327;23;20339;-62
2022/05/14 18:15:14;;;;;;;;;;;;;;;;;;6089859;23;19901;-62
2022/05/14 18:17:40;;;;;;;;;;;;;;;;;;6066810;23;19983;-62
2022/05/14 18:20:09;;;;;;;;;;;;;;;;;;6065771;23;20164;-62
2022/05/14 18:52:56;;;;;;;;;;;;;;;;;;6183636;23;19930;-62
2022/05/14 18:55:22;;;;;;;;;;;;;;;;;;6155233;23;20401;-62
2022/05/14 18:57:48;;;;;;;;;;;;;;;;;;6182053;23;19954;-62
2022/05/14 19:03:00;;;;;;;;;;;;;;;;;;6183412;23;19954;-63
2022/05/14 19:08:11;;;;;;;;;;;;;;;;;;6181159;23;20329;-63
2022/05/14 19:10:37;;;;;;;;;;;;;;;;;;6181556;23;19926;-63
2022/05/14 19:13:03;;;;;;;;;;;;;;;;;;6181192;23;19910;-63
2022/05/14 19:15:29;;;;;;;;;;;;;;;;;;6180713;23;19928;-64
2022/05/14 19:17:55;;;;;;;;;;;;;;;;;;6181488;23;19908;-63
2022/05/14 19:20:21;;;;;;;;;;;;;;;;;;6180763;23;20347;-64
2022/05/14 19:22:47;;;;;;;;;;;;;;;;;;6181957;23;19979;-63
2022/05/14 19:25:13;;;;;;;;;;;;;;;;;;6181790;23;19932;-63
2022/05/14 19:27:39;;;;;;;;;;;;;;;;;;6181774;23;20279;-63
2022/05/14 19:30:05;;;;;;;;;;;;;;;;;;6179669;23;20290;-63
2022/05/14 19:32:31;;;;;;;;;;;;;;;;;;6182367;23;19900;-63
2022/05/14 19:34:57;;;;;;;;;;;;;;;;;;6182096;23;20304;-63
2022/05/14 19:37:22;;;;;;;;;;;;;;;;;;6181663;23;19983;-64
2022/05/14 19:39:48;;;;;;;;;;;;;;;;;;6181338;23;19900;-63
2022/05/14 21:29:40;;;;;;;;;;;;;;;;;;6188018;23;19919;-64
2022/05/14 22:49:36;;;;;;;;;;;;;;;;;;6156354;23;19923;-72
2022/05/14 22:52:02;;;;;;;;;;;;;;;;;;6150758;23;19967;-72
2022/05/14 22:54:28;;;;;;;;;;;;;;;;;;6152478;23;19904;-72
2022/05/14 22:56:53;;;;;;;;;;;;;;;;;;6150035;23;19908;-72
2022/05/14 22:59:21;;;;;;;;;;;;;;;;;;6151050;23;20336;-72
2022/05/14 23:01:47;;;;;;;;;;;;;;;;;;6151205;23;20445;-72
2022/05/14 23:04:13;;;;;;;;;;;;;;;;;;6149057;23;19912;-72
2022/05/14 23:06:38;;;;;;;;;;;;;;;;;;6150215;23;19904;-72
2022/05/14 23:09:04;;;;;;;;;;;;;;;;;;6151458;23;19901;-72
2022/05/14 23:11:30;;;;;;;;;;;;;;;;;;6150585;23;19932;-72
2022/05/14 23:13:56;;;;;;;;;;;;;;;;;;6150463;23;19900;-72
2022/05/14 23:16:22;;;;;;;;;;;;;;;;;;6150724;23;19940;-72
2022/05/14 23:18:48;;;;;;;;;;;;;;;;;;6151329;23;19907;-72